Time;durP1;ratioP1;P1;durP2;ratioP2;P2;SDS_P1;SDS_P2;PMS_P1;PMS_P2;Temp;Humidity;BMP_temperature;BMP_pressure;BME280_temperature;BME280_humidity;BME280_pressure;Samples;Min_cycle;Max_cycle;Signal;HPM_P1;HPM_P2
2023/01/10 00:00:20;;;;;;;12.02;6.40;;;7.10;99.90;;;;;;5056419;28;20391;-92
2023/01/10 00:02:45;;;;;;;10.25;5.10;;;7.20;99.90;;;;;;5038761;28;20164;-93
2023/01/10 00:05:11;;;;;;;9.55;5.20;;;7.30;99.90;;;;;;5038719;28;20092;-92
2023/01/10 00:07:37;;;;;;;7.55;5.10;;;7.30;99.90;;;;;;5056414;28;20031;-93
2023/01/10 00:10:02;;;;;;;8.45;4.85;;;7.30;99.90;;;;;;5056580;28;20477;-92
2023/01/10 00:15:12;;;;;;;9.73;4.53;;;7.20;99.90;;;;;;5056441;28;20024;-92
2023/01/10 00:17:38;;;;;;;8.60;3.80;;;7.10;99.90;;;;;;5056206;28;20435;-93
2023/01/10 00:20:04;;;;;;;5.20;3.40;;;7.20;99.90;;;;;;5056494;28;20025;-93
2023/01/10 00:22:29;;;;;;;7.85;4.00;;;7.10;99.90;;;;;;5056220;28;20029;-92
2023/01/10 00:24:55;;;;;;;11.65;6.10;;;7.20;99.90;;;;;;5055920;28;20052;-93
2023/01/10 00:27:21;;;;;;;11.27;6.22;;;7.20;99.90;;;;;;5055665;28;20040;-93
2023/01/10 00:29:50;;;;;;;19.00;9.30;;;7.20;99.90;;;;;;5055949;28;20017;-94
2023/01/10 00:32:15;;;;;;;7.35;3.90;;;7.20;99.90;;;;;;5055982;28;20159;-93
2023/01/10 00:34:41;;;;;;;4.85;2.88;;;7.20;99.90;;;;;;5055547;28;20480;-93
2023/01/10 00:37:07;;;;;;;5.88;2.80;;;7.10;99.90;;;;;;5056114;28;20465;-93
2023/01/10 00:39:32;;;;;;;4.22;2.95;;;7.20;99.90;;;;;;5056091;28;20469;-93
2023/01/10 00:44:45;;;;;;;43.40;19.50;;;7.10;99.90;;;;;;5055529;28;20036;-93
2023/01/10 00:47:11;;;;;;;32.67;15.23;;;7.30;99.90;;;;;;5055780;28;20025;-93
2023/01/10 00:49:37;;;;;;;14.30;7.13;;;7.30;99.90;;;;;;5055447;28;20111;-93
2023/01/10 00:52:04;;;;;;;78.90;36.90;;;7.20;99.90;;;;;;5055535;28;20116;-93
2023/01/10 00:54:29;;;;;;;33.10;15.60;;;7.30;99.90;;;;;;5055641;28;20025;-92
2023/01/10 00:56:55;;;;;;;13.73;6.88;;;7.20;99.90;;;;;;5037595;28;20025;-94
2023/01/10 00:59:21;;;;;;;9.50;4.72;;;7.20;99.90;;;;;;5037698;28;20029;-93
2023/01/10 01:01:47;;;;;;;6.70;3.63;;;7.20;99.90;;;;;;5055390;28;20029;-93
2023/01/10 01:04:14;;;;;;;6.15;3.33;;;7.20;99.90;;;;;;5055323;28;20025;-93
2023/01/10 01:06:43;;;;;;;5.53;2.97;;;7.20;99.90;;;;;;5054799;28;20029;-93
2023/01/10 01:09:08;;;;;;;10.90;3.13;;;7.20;99.90;;;;;;5055228;28;20465;-93
2023/01/10 01:11:34;;;;;;;14.50;9.60;;;7.20;99.90;;;;;;5054849;28;20040;-93
2023/01/10 01:13:59;;;;;;;34.28;25.48;;;7.30;99.90;;;;;;5055485;28;20075;-93
2023/01/10 01:16:25;;;;;;;15.30;10.25;;;7.20;99.90;;;;;;5070261;28;20033;-92
2023/01/10 01:18:51;;;;;;;5.55;3.38;;;7.20;99.90;;;;;;5074648;28;20040;-93
2023/01/10 01:21:17;;;;;;;10.45;6.88;;;7.30;99.90;;;;;;5074946;28;20150;-93
2023/01/10 01:23:43;;;;;;;5.38;2.97;;;7.30;99.90;;;;;;5074919;28;20048;-93
2023/01/10 01:26:09;;;;;;;16.63;9.18;;;7.30;99.90;;;;;;5074319;28;20028;-93
2023/01/10 01:28:35;;;;;;;12.73;6.43;;;7.30;99.90;;;;;;5074892;28;20105;-93
2023/01/10 01:31:09;;;;;;;22.38;11.25;;;7.20;99.90;;;;;;5056831;28;20067;-92
2023/01/10 01:33:35;;;;;;;68.80;36.05;;;7.30;99.90;;;;;;5057303;28;20165;-93
2023/01/10 01:36:00;;;;;;;72.85;37.30;;;7.20;99.90;;;;;;5074523;28;20056;-93
2023/01/10 01:38:26;;;;;;;43.33;18.90;;;7.20;99.90;;;;;;5074765;28;20024;-93
2023/01/10 01:40:51;;;;;;;19.90;9.43;;;7.20;99.90;;;;;;5074313;28;20415;-94
2023/01/10 01:43:26;;;;;;;12.73;5.13;;;7.00;99.90;;;;;;5056920;28;20083;-93
2023/01/10 01:45:52;;;;;;;9.52;3.03;;;7.10;99.90;;;;;;5056523;28;20024;-93
2023/01/10 01:48:19;;;;;;;4.75;2.53;;;7.10;99.90;;;;;;5074606;28;20032;-93
2023/01/10 01:51:04;;;;;;;9.43;2.42;;;7.00;99.90;;;;;;5074556;28;20033;-93
2023/01/10 01:54:10;;;;;;;11.23;6.07;;;7.00;99.90;;;;;;5074676;28;20024;-93
2023/01/10 01:56:52;;;;;;;13.32;8.02;;;7.10;99.90;;;;;;5053659;28;20035;-92
2023/01/10 01:59:29;;;;;;;10.55;5.60;;;7.10;99.90;;;;;;5056552;28;20032;-93
2023/01/10 02:02:02;;;;;;;6.07;3.75;;;7.10;99.90;;;;;;5074263;28;20107;-93
2023/01/10 02:04:37;;;;;;;8.68;4.45;;;7.10;99.90;;;;;;5074416;28;20047;-94
2023/01/10 02:07:03;;;;;;;7.93;5.28;;;7.10;99.90;;;;;;5074138;28;20032;-93
2023/01/10 02:10:01;;;;;;;16.83;12.43;;;7.20;99.90;;;;;;5074229;28;20032;-94
2023/01/10 02:12:28;;;;;;;9.55;5.40;;;7.30;99.90;;;;;;5058779;28;20051;-93
2023/01/10 02:14:55;;;;;;;7.00;4.00;;;7.20;99.90;;;;;;5073998;28;20415;-93
2023/01/10 02:17:21;;;;;;;5.65;3.00;;;7.20;99.90;;;;;;5073251;28;20496;-94
2023/01/10 02:19:57;;;;;;;5.03;2.47;;;7.20;99.90;;;;;;5073697;28;20107;-93
2023/01/10 02:22:34;;;;;;;6.28;2.63;;;7.10;99.90;;;;;;5073899;28;20024;-93
2023/01/10 02:25:28;;;;;;;7.35;2.35;;;7.00;99.90;;;;;;5073351;28;20045;-92
2023/01/10 02:28:12;;;;;;;6.60;2.20;;;7.00;99.90;;;;;;5073980;28;20027;-93
2023/01/10 02:31:00;;;;;;;8.05;2.40;;;6.80;99.90;;;;;;5074015;28;20028;-93
2023/01/10 02:33:30;;;;;;;6.47;2.50;;;6.90;99.90;;;;;;5074055;28;20500;-94
2023/01/10 02:36:13;;;;;;;6.50;2.45;;;7.00;99.90;;;;;;5073539;28;20457;-93
2023/01/10 02:38:49;;;;;;;4.70;2.30;;;6.90;99.90;;;;;;5073720;28;20107;-93
2023/01/10 02:41:32;;;;;;;7.03;2.50;;;6.90;99.90;;;;;;5073995;28;20020;-93
2023/01/10 02:44:26;;;;;;;6.40;2.40;;;6.90;99.90;;;;;;5073665;28;20029;-93
2023/01/10 02:46:52;;;;;;;6.82;2.20;;;6.80;99.90;;;;;;5012084;28;20036;-93
2023/01/10 02:49:18;;;;;;;4.43;2.35;;;6.80;99.90;;;;;;5012640;28;20038;-93
2023/01/10 02:51:43;;;;;;;3.85;2.33;;;6.90;99.90;;;;;;5012176;28;20065;-93
2023/01/10 02:54:15;;;;;;;4.07;2.08;;;6.90;99.90;;;;;;5001063;28;20093;-93
2023/01/10 02:56:52;;;;;;;6.95;2.30;;;7.00;99.90;;;;;;4992920;28;20031;-93
2023/01/10 02:59:56;;;;;;;8.02;2.05;;;6.80;99.90;;;;;;4992777;28;20763;-93
2023/01/10 03:02:24;;;;;;;8.50;1.98;;;6.70;99.90;;;;;;4934905;29;20052;-93
2023/01/10 03:05:10;;;;;;;6.15;2.45;;;6.70;99.90;;;;;;4935094;29;20040;-93
2023/01/10 03:08:06;;;;;;;7.05;2.70;;;6.80;99.90;;;;;;4934293;29;20039;-92
2023/01/10 03:10:50;;;;;;;7.95;2.53;;;6.80;99.90;;;;;;4933942;29;20059;-93
2023/01/10 03:13:24;;;;;;;7.10;2.53;;;6.80;99.90;;;;;;4932193;29;20441;-93
2023/01/10 03:15:53;;;;;;;5.15;2.38;;;6.70;99.90;;;;;;4918327;29;20536;-93
2023/01/10 03:18:41;;;;;;;4.95;2.17;;;7.00;99.90;;;;;;4933917;29;20051;-92
2023/01/10 03:21:10;;;;;;;5.93;1.88;;;6.80;99.90;;;;;;4934372;29;20105;-93
2023/01/10 03:23:36;;;;;;;6.32;2.10;;;6.80;99.90;;;;;;4948774;28;20043;-93
2023/01/10 03:26:03;;;;;;;6.15;2.10;;;6.80;99.90;;;;;;4973109;28;20101;-93
2023/01/10 03:28:51;;;;;;;5.82;2.20;;;6.70;99.90;;;;;;4972364;28;20495;-93
2023/01/10 03:31:22;;;;;;;6.05;1.83;;;6.70;99.90;;;;;;4976443;28;20049;-92
2023/01/10 03:33:48;;;;;;;8.75;2.28;;;6.80;99.90;;;;;;4976147;28;20054;-93
2023/01/10 03:36:40;;;;;;;5.70;2.13;;;6.90;99.90;;;;;;4975529;28;20114;-93
2023/01/10 03:39:15;;;;;;;4.82;1.73;;;6.60;99.90;;;;;;4964636;28;20062;-94
2023/01/10 03:41:55;;;;;;;9.27;2.15;;;6.60;99.90;;;;;;4995256;28;20038;-93
2023/01/10 03:44:43;;;;;;;4.45;1.70;;;6.50;99.90;;;;;;4995245;28;20074;-93
2023/01/10 03:47:22;;;;;;;5.20;2.05;;;6.40;99.90;;;;;;4979163;28;20461;-93
2023/01/10 03:49:53;;;;;;;7.18;2.13;;;6.30;99.90;;;;;;4995555;28;20047;-93
2023/01/10 03:52:20;;;;;;;5.35;1.95;;;6.20;99.90;;;;;;4994744;28;20549;-94
2023/01/10 03:54:46;;;;;;;6.68;1.98;;;6.00;99.90;;;;;;4978943;28;20029;-93
2023/01/10 03:57:20;;;;;;;6.00;2.00;;;5.90;99.90;;;;;;4975473;28;20066;-93
2023/01/10 03:59:49;;;;;;;4.20;1.75;;;5.80;99.90;;;;;;4960011;28;20015;-93
2023/01/10 04:02:15;;;;;;;5.00;1.98;;;6.00;99.90;;;;;;4975923;28;20431;-93
2023/01/10 04:04:40;;;;;;;6.72;1.73;;;5.90;99.90;;;;;;4976514;28;20063;-93
2023/01/10 04:07:06;;;;;;;6.97;1.92;;;5.90;99.90;;;;;;4975838;28;20027;-93
2023/01/10 04:09:31;;;;;;;5.38;1.90;;;6.20;99.90;;;;;;4976002;28;20046;-93
2023/01/10 04:11:57;;;;;;;3.92;1.70;;;6.00;99.90;;;;;;4975609;28;20046;-93
2023/01/10 04:14:23;;;;;;;7.20;1.75;;;5.90;99.90;;;;;;4976159;28;20118;-94
2023/01/10 04:16:48;;;;;;;5.85;1.85;;;5.80;99.90;;;;;;5046895;28;20427;-93
2023/01/10 04:19:14;;;;;;;6.75;2.00;;;5.90;99.90;;;;;;5055812;28;20029;-93
2023/01/10 04:21:39;;;;;;;3.83;1.70;;;5.90;99.90;;;;;;5056304;28;20033;-93
2023/01/10 04:24:05;;;;;;;6.07;2.05;;;6.00;99.90;;;;;;5055915;28;20139;-93
2023/01/10 04:26:31;;;;;;;7.88;2.70;;;6.20;99.90;;;;;;5056586;28;20166;-92
2023/01/10 04:28:57;;;;;;;6.50;2.00;;;6.20;99.90;;;;;;5056220;28;20055;-93
2023/01/10 04:31:22;;;;;;;5.15;2.00;;;6.20;99.90;;;;;;5038021;28;20099;-94
2023/01/10 04:33:48;;;;;;;6.30;1.70;;;6.50;99.90;;;;;;5037750;28;20485;-92
2023/01/10 04:36:14;;;;;;;6.15;2.28;;;6.30;99.90;;;;;;5037925;28;20056;-92
2023/01/10 04:38:39;;;;;;;5.22;2.10;;;6.30;99.90;;;;;;5056096;28;20021;-93
2023/01/10 04:41:05;;;;;;;5.63;2.60;;;6.40;99.90;;;;;;5055296;28;20555;-93
2023/01/10 04:43:31;;;;;;;6.75;2.03;;;6.30;99.90;;;;;;5056021;28;20029;-92
2023/01/10 04:45:57;;;;;;;7.32;2.22;;;6.70;99.90;;;;;;5056002;28;20071;-91
2023/01/10 04:48:23;;;;;;;5.18;1.80;;;6.30;99.90;;;;;;5037383;28;20040;-93
2023/01/10 04:50:53;;;;;;;5.72;1.90;;;6.50;99.90;;;;;;5055433;28;20116;-93
2023/01/10 04:53:20;;;;;;;6.63;2.30;;;6.40;99.90;;;;;;5055561;28;20025;-93
2023/01/10 04:55:46;;;;;;;5.38;2.25;;;6.40;99.90;;;;;;5055679;28;20021;-93
2023/01/10 04:58:12;;;;;;;7.15;2.22;;;6.30;99.90;;;;;;5055437;28;20450;-93
2023/01/10 05:00:38;;;;;;;5.50;2.00;;;6.50;99.90;;;;;;5037688;28;20056;-94
2023/01/10 05:03:04;;;;;;;6.95;2.20;;;6.20;99.90;;;;;;5037383;28;20402;-93
2023/01/10 05:05:30;;;;;;;5.45;2.25;;;6.20;99.90;;;;;;5055531;28;20035;-93
2023/01/10 05:07:56;;;;;;;8.15;2.65;;;6.50;99.90;;;;;;5037605;28;20464;-93
2023/01/10 05:10:22;;;;;;;10.82;2.58;;;6.30;99.90;;;;;;5055207;28;20028;-92
2023/01/10 05:12:48;;;;;;;6.13;2.72;;;6.30;99.90;;;;;;5055072;28;20040;-93
2023/01/10 05:15:13;;;;;;;5.40;2.28;;;6.40;99.90;;;;;;5055520;28;20497;-93
2023/01/10 05:17:39;;;;;;;8.80;2.90;;;6.10;99.90;;;;;;5054750;28;20033;-92
2023/01/10 05:20:06;;;;;;;7.57;2.65;;;6.10;99.90;;;;;;5054882;28;20017;-93
2023/01/10 05:22:32;;;;;;;7.78;3.20;;;6.10;99.90;;;;;;5055033;28;20025;-92
2023/01/10 05:24:57;;;;;;;12.00;3.45;;;6.20;99.90;;;;;;5054308;28;20120;-93
2023/01/10 05:27:23;;;;;;;8.50;3.22;;;6.30;99.90;;;;;;5055006;28;20053;-93
2023/01/10 05:29:48;;;;;;;7.25;2.75;;;6.20;99.90;;;;;;5054968;28;20100;-93
2023/01/10 05:32:14;;;;;;;6.43;2.70;;;6.30;99.90;;;;;;5054250;28;20036;-93
2023/01/10 05:34:40;;;;;;;7.05;2.42;;;6.20;99.90;;;;;;5054896;28;20071;-93
2023/01/10 05:37:06;;;;;;;6.43;2.65;;;6.30;99.90;;;;;;5054659;28;20508;-93
2023/01/10 05:39:31;;;;;;;7.00;2.67;;;6.50;99.90;;;;;;5054955;28;20029;-93
2023/01/10 05:41:57;;;;;;;8.88;2.90;;;6.40;99.90;;;;;;5054281;28;20116;-93
2023/01/10 05:44:23;;;;;;;5.55;2.55;;;6.10;99.90;;;;;;5054726;28;20025;-92
2023/01/10 05:46:48;;;;;;;10.13;3.90;;;6.10;99.90;;;;;;5054015;28;20025;-93
2023/01/10 05:49:14;;;;;;;13.80;6.03;;;6.10;99.90;;;;;;5054972;28;20033;-92
2023/01/10 05:51:41;;;;;;;16.63;5.90;;;6.20;99.90;;;;;;5053577;28;20098;-93
2023/01/10 05:54:07;;;;;;;12.25;4.57;;;6.50;99.90;;;;;;5054374;28;20056;-92
2023/01/10 05:56:32;;;;;;;10.43;4.25;;;6.20;99.90;;;;;;5054490;28;20456;-93
2023/01/10 05:58:58;;;;;;;15.68;4.95;;;6.40;99.90;;;;;;5054634;28;20024;-93
2023/01/10 06:01:24;;;;;;;13.05;4.13;;;6.40;99.90;;;;;;5054211;28;20036;-92
2023/01/10 06:03:49;;;;;;;10.70;3.85;;;6.30;99.90;;;;;;5054173;28;20025;-94
2023/01/10 06:06:15;;;;;;;9.73;3.60;;;6.30;99.90;;;;;;5053881;28;20099;-92
2023/01/10 06:08:41;;;;;;;10.05;3.38;;;6.40;99.90;;;;;;5036239;28;20031;-93
2023/01/10 06:11:07;;;;;;;9.27;3.17;;;6.70;99.90;;;;;;5053869;28;20063;-93
2023/01/10 06:13:32;;;;;;;8.48;3.60;;;6.50;99.90;;;;;;5053809;28;20032;-93
2023/01/10 06:15:59;;;;;;;9.93;3.28;;;6.40;99.90;;;;;;5053190;28;20094;-93
2023/01/10 06:18:24;;;;;;;5.82;3.03;;;6.50;99.90;;;;;;5037058;28;20047;-93
2023/01/10 06:20:50;;;;;;;8.45;3.50;;;6.40;99.90;;;;;;5054291;28;20104;-90
2023/01/10 06:23:16;;;;;;;6.95;3.58;;;6.50;99.90;;;;;;5052982;28;20071;-89
2023/01/10 06:25:42;;;;;;;9.25;3.40;;;6.70;99.90;;;;;;5053125;28;20037;-91
2023/01/10 06:28:08;;;;;;;10.35;3.88;;;6.40;99.90;;;;;;5052404;28;20032;-89
2023/01/10 06:30:34;;;;;;;9.10;3.60;;;6.30;99.90;;;;;;5053011;28;20056;-92
2023/01/10 06:33:04;;;;;;;10.05;3.22;;;6.40;99.90;;;;;;5052439;28;20056;-90
2023/01/10 06:35:30;;;;;;;6.95;3.15;;;6.30;99.90;;;;;;5053138;28;20025;-90
2023/01/10 06:37:56;;;;;;;5.97;3.10;;;6.30;99.90;;;;;;5053112;28;20477;-89
2023/01/10 06:40:22;;;;;;;8.50;3.30;;;6.50;99.90;;;;;;5053682;28;20037;-94
2023/01/10 06:42:48;;;;;;;5.57;2.80;;;6.20;99.90;;;;;;5053562;28;20021;-95
2023/01/10 06:45:14;;;;;;;8.18;3.17;;;6.60;99.90;;;;;;5053102;28;20029;-94
2023/01/10 06:47:40;;;;;;;8.35;3.20;;;6.20;99.90;;;;;;5053221;28;20013;-93
2023/01/10 06:50:06;;;;;;;7.93;3.13;;;6.20;99.90;;;;;;5052912;28;20041;-93
2023/01/10 06:52:31;;;;;;;7.40;3.40;;;6.30;99.90;;;;;;5053550;28;20099;-92
2023/01/10 06:54:57;;;;;;;12.15;4.32;;;6.30;99.90;;;;;;5052818;28;20129;-93
2023/01/10 06:57:23;;;;;;;6.93;3.45;;;6.40;99.90;;;;;;5035417;28;20154;-93
2023/01/10 06:59:48;;;;;;;10.32;3.95;;;6.20;99.90;;;;;;5052645;28;20021;-93
2023/01/10 07:02:14;;;;;;;7.00;3.58;;;6.20;99.90;;;;;;5035615;28;20437;-93
2023/01/10 07:04:40;;;;;;;7.05;3.38;;;6.40;99.90;;;;;;5038581;28;20100;-93
2023/01/10 07:07:06;;;;;;;7.00;4.00;;;6.30;99.90;;;;;;5056951;28;20095;-93
2023/01/10 07:09:31;;;;;;;9.82;4.38;;;6.80;99.90;;;;;;5057034;28;20052;-93
2023/01/10 07:11:57;;;;;;;11.30;4.50;;;6.60;99.90;;;;;;5056978;28;20037;-93
2023/01/10 07:14:23;;;;;;;10.00;4.03;;;6.80;99.90;;;;;;5056344;28;20025;-93
2023/01/10 07:16:49;;;;;;;9.88;3.97;;;6.90;99.90;;;;;;5057644;28;20028;-93
2023/01/10 07:19:16;;;;;;;9.90;4.32;;;7.10;99.90;;;;;;5055964;28;20099;-86
2023/01/10 07:21:42;;;;;;;12.50;4.13;;;7.10;99.90;;;;;;5055222;28;20488;-85
2023/01/10 07:24:08;;;;;;;9.63;4.15;;;7.20;99.90;;;;;;5055154;28;20048;-86
2023/01/10 07:26:34;;;;;;;10.65;4.35;;;7.00;99.90;;;;;;5055319;28;20085;-86
2023/01/10 07:29:01;;;;;;;8.50;4.03;;;6.90;99.90;;;;;;5054687;28;20035;-86
2023/01/10 07:31:26;;;;;;;10.40;3.72;;;6.90;99.90;;;;;;5055740;28;20036;-87
2023/01/10 07:33:52;;;;;;;10.55;3.90;;;6.80;99.90;;;;;;5055290;28;20028;-82
2023/01/10 07:36:18;;;;;;;12.98;3.88;;;6.90;99.90;;;;;;5054636;28;20520;-82
2023/01/10 07:38:44;;;;;;;9.80;4.03;;;7.10;99.90;;;;;;5055345;28;20021;-81
2023/01/10 07:41:10;;;;;;;16.38;4.53;;;7.20;99.90;;;;;;5055561;28;20139;-82
2023/01/10 07:43:35;;;;;;;8.93;4.20;;;7.20;99.90;;;;;;5055148;28;20021;-82
2023/01/10 07:46:02;;;;;;;11.32;4.50;;;7.10;99.90;;;;;;5055164;28;20112;-81
2023/01/10 07:48:29;;;;;;;12.40;5.10;;;7.10;99.90;;;;;;5055135;28;20025;-82
2023/01/10 07:51:00;;;;;;;10.85;5.15;;;7.50;99.90;;;;;;5055733;28;20509;-82
2023/01/10 07:53:27;;;;;;;11.90;5.10;;;8.30;99.90;;;;;;5053524;28;20044;-82
2023/01/10 07:55:57;;;;;;;12.75;5.20;;;8.40;99.90;;;;;;5055382;28;20057;-82
2023/01/10 07:58:22;;;;;;;10.63;4.43;;;8.70;99.90;;;;;;5054629;28;20033;-82
2023/01/10 08:00:49;;;;;;;10.70;5.30;;;9.30;99.90;;;;;;5054850;28;20028;-82
2023/01/10 08:03:15;;;;;;;13.30;5.45;;;9.60;99.90;;;;;;5054801;28;20096;-81
2023/01/10 08:05:41;;;;;;;9.95;5.50;;;10.40;99.90;;;;;;5054732;28;20029;-82
2023/01/10 08:08:09;;;;;;;9.32;4.32;;;11.60;99.90;;;;;;5054557;28;20033;-82
2023/01/10 08:10:36;;;;;;;16.17;9.38;;;13.00;99.90;;;;;;5054940;28;20027;-82
2023/01/10 08:13:02;;;;;;;11.95;4.50;;;13.80;99.90;;;;;;5054309;28;20044;-82
2023/01/10 08:15:28;;;;;;;9.85;4.45;;;13.60;99.90;;;;;;5053555;28;20392;-82
2023/01/10 08:17:54;;;;;;;7.50;4.65;;;12.70;99.90;;;;;;5054721;28;20021;-82
2023/01/10 08:20:20;;;;;;;12.30;5.90;;;12.00;99.90;;;;;;5054626;28;20043;-82
2023/01/10 08:22:45;;;;;;;15.82;6.45;;;13.20;99.90;;;;;;5054603;28;20048;-82
2023/01/10 08:25:11;;;;;;;13.85;7.65;;;13.00;99.90;;;;;;5053900;28;20053;-82
2023/01/10 08:27:37;;;;;;;12.95;7.47;;;12.90;99.90;;;;;;5054410;28;20461;-82
2023/01/10 08:30:04;;;;;;;10.38;6.13;;;13.00;99.90;;;;;;5054276;28;20021;-82
2023/01/10 08:32:30;;;;;;;7.72;3.45;;;13.30;99.90;;;;;;5054269;28;20501;-82
2023/01/10 08:34:55;;;;;;;10.68;3.50;;;12.40;99.90;;;;;;5054539;28;20032;-82
2023/01/10 08:37:21;;;;;;;10.20;3.35;;;13.00;99.90;;;;;;5054084;28;20029;-82
2023/01/10 08:39:47;;;;;;;9.93;4.20;;;16.10;99.90;;;;;;5054434;28;20017;-82
2023/01/10 08:42:13;;;;;;;7.90;4.15;;;17.20;99.90;;;;;;5053679;28;20021;-83
2023/01/10 08:44:38;;;;;;;12.93;4.15;;;18.20;99.90;;;;;;5054060;28;20051;-83
2023/01/10 08:47:04;;;;;;;10.73;5.00;;;19.00;99.90;;;;;;5054263;28;20025;-82
2023/01/10 08:49:29;;;;;;;7.57;5.47;;;20.90;99.90;;;;;;5053992;28;20030;-82
2023/01/10 08:51:55;;;;;;;9.50;4.75;;;21.60;99.90;;;;;;5053942;28;20037;-82
2023/01/10 08:54:21;;;;;;;9.88;4.43;;;21.20;99.90;;;;;;5053910;28;20381;-83
2023/01/10 08:56:46;;;;;;;7.28;4.15;;;21.20;99.90;;;;;;5053492;28;20031;-82
2023/01/10 08:59:12;;;;;;;8.23;4.55;;;21.50;99.90;;;;;;5053701;28;20036;-82
2023/01/10 09:01:38;;;;;;;9.93;4.50;;;21.50;99.90;;;;;;5053736;28;20070;-82
2023/01/10 09:04:04;;;;;;;10.60;6.55;;;21.70;99.90;;;;;;5053680;28;20021;-82
2023/01/10 09:06:30;;;;;;;13.98;7.20;;;21.90;99.90;;;;;;5053709;28;20052;-82
2023/01/10 09:08:55;;;;;;;13.63;7.05;;;22.10;99.90;;;;;;5053520;28;20064;-82
2023/01/10 09:11:21;;;;;;;14.60;8.30;;;21.90;99.90;;;;;;5053591;28;20043;-82
2023/01/10 09:13:50;;;;;;;12.35;7.53;;;22.20;99.90;;;;;;5053435;28;20151;-82
2023/01/10 09:16:17;;;;;;;14.73;8.20;;;21.40;99.90;;;;;;5053358;28;20032;-82
2023/01/10 09:18:43;;;;;;;12.90;8.15;;;19.10;99.90;;;;;;5053778;28;20064;-82
2023/01/10 09:21:08;;;;;;;15.02;7.72;;;19.60;99.90;;;;;;5053353;28;20578;-82
2023/01/10 09:23:34;;;;;;;13.35;6.45;;;20.80;99.90;;;;;;5053105;28;20503;-82
2023/01/10 09:26:00;;;;;;;12.50;5.82;;;20.00;99.90;;;;;;5052954;28;20029;-82
2023/01/10 09:28:25;;;;;;;9.95;5.05;;;20.30;99.90;;;;;;5053529;28;20025;-82
2023/01/10 09:30:51;;;;;;;9.98;5.38;;;19.20;99.90;;;;;;5052986;28;20040;-82
2023/01/10 09:33:17;;;;;;;11.85;5.38;;;18.60;99.90;;;;;;5053498;28;20029;-82
2023/01/10 09:35:43;;;;;;;11.00;4.68;;;18.90;99.90;;;;;;5053071;28;20040;-82
2023/01/10 09:38:13;;;;;;;9.13;4.50;;;18.60;99.90;;;;;;5053093;28;20025;-82
2023/01/10 09:41:13;;;;;;;9.82;4.43;;;21.00;99.90;;;;;;5053176;28;20374;-82
2023/01/10 09:44:01;;;;;;;7.30;3.45;;;19.60;99.90;;;;;;5053221;28;20032;-82
2023/01/10 09:46:45;;;;;;;6.43;3.28;;;19.40;99.90;;;;;;5052757;28;20021;-82
2023/01/10 09:49:13;;;;;;;6.43;3.25;;;19.00;99.90;;;;;;5052947;28;20032;-82
2023/01/10 09:51:46;;;;;;;10.98;3.35;;;19.00;99.90;;;;;;5052723;28;20044;-80
2023/01/10 09:54:31;;;;;;;9.25;3.20;;;20.10;99.90;;;;;;5052385;28;20028;-80
2023/01/10 09:56:59;;;;;;;7.00;3.03;;;21.80;99.90;;;;;;5052938;28;20402;-80
2023/01/10 09:59:40;;;;;;;6.35;2.47;;;19.30;99.90;;;;;;5052525;28;20108;-79
2023/01/10 10:02:44;;;;;;;8.55;2.92;;;21.10;99.90;;;;;;5052800;28;20075;-80
2023/01/10 10:05:18;;;;;;;9.25;2.63;;;20.80;99.90;;;;;;4990070;28;20030;-79
2023/01/10 10:07:51;;;;;;;6.95;2.10;;;20.20;99.90;;;;;;4961941;28;20533;-80
2023/01/10 10:10:25;;;;;;;7.28;2.90;;;20.60;99.90;;;;;;4971508;28;20031;-80
2023/01/10 10:13:17;;;;;;;7.13;2.72;;;21.20;99.90;;;;;;4987721;28;20578;-80
2023/01/10 10:16:09;;;;;;;8.68;2.60;;;20.90;99.90;;;;;;4989279;28;20037;-80
2023/01/10 10:19:00;;;;;;;8.13;2.35;;;22.40;99.90;;;;;;4967643;28;20050;-80
2023/01/10 10:21:56;;;;;;;6.15;2.90;;;19.80;99.90;;;;;;4983005;28;20380;-79
2023/01/10 10:24:30;;;;;;;8.68;3.05;;;19.30;99.90;;;;;;4989427;28;20048;-80
2023/01/10 10:27:18;;;;;;;9.15;3.40;;;21.40;99.90;;;;;;4990388;28;20049;-80
2023/01/10 10:29:53;;;;;;;6.10;2.38;;;22.30;99.90;;;;;;4990989;28;20042;-81
2023/01/10 10:32:46;;;;;;;8.38;2.72;;;23.60;99.90;;;;;;5010373;28;20045;-80
2023/01/10 10:35:19;;;;;;;7.82;2.60;;;26.10;99.90;;;;;;5004468;28;20022;-81
2023/01/10 10:37:49;;;;;;;7.25;2.90;;;25.20;99.90;;;;;;4989791;28;20117;-80
2023/01/10 10:40:21;;;;;;;7.22;1.90;;;24.30;99.90;;;;;;5046596;28;20041;-81
2023/01/10 10:42:50;;;;;;;7.50;2.20;;;24.40;99.90;;;;;;5052177;28;20044;-81
2023/01/10 10:45:35;;;;;;;7.70;2.30;;;23.60;99.90;;;;;;5051719;28;20363;-81
2023/01/10 10:48:26;;;;;;;7.65;2.35;;;24.70;99.90;;;;;;5051615;28;20033;-80
2023/01/10 10:51:02;;;;;;;8.75;2.17;;;24.90;99.90;;;;;;4951450;29;20044;-81
2023/01/10 10:53:30;;;;;;;5.70;1.60;;;26.60;99.90;;;;;;4951910;28;20035;-81
2023/01/10 10:55:56;;;;;;;6.60;2.20;;;25.90;99.90;;;;;;4951576;29;20031;-82
2023/01/10 10:58:22;;;;;;;5.63;2.22;;;28.20;99.90;;;;;;4951316;29;20543;-81
2023/01/10 11:00:47;;;;;;;5.50;1.95;;;28.10;99.90;;;;;;4951259;29;20031;-81
2023/01/10 11:03:37;;;;;;;4.47;1.98;;;28.30;99.90;;;;;;4963198;28;20035;-80
2023/01/10 11:06:05;;;;;;;6.25;2.20;;;27.10;99.90;;;;;;4963627;28;20023;-81
2023/01/10 11:08:35;;;;;;;7.68;2.38;;;27.30;99.90;;;;;;4954606;28;20575;-80
2023/01/10 11:11:02;;;;;;;7.50;2.20;;;26.30;99.90;;;;;;4959344;28;20062;-78
2023/01/10 11:13:40;;;;;;;8.02;2.25;;;27.90;99.90;;;;;;4951698;28;20031;-82
2023/01/10 11:16:07;;;;;;;7.75;2.50;;;26.20;99.90;;;;;;4960493;28;20073;-79
2023/01/10 11:18:33;;;;;;;7.55;2.33;;;27.20;99.90;;;;;;4963538;28;20083;-82
2023/01/10 11:21:11;;;;;;;5.32;1.95;;;27.40;99.90;;;;;;4951315;29;20043;-81
2023/01/10 11:23:54;;;;;;;5.65;2.20;;;26.60;99.90;;;;;;4958535;28;20197;-82
2023/01/10 11:26:36;;;;;;;6.28;2.08;;;25.50;99.90;;;;;;4966773;28;20035;-82
2023/01/10 11:29:28;;;;;;;5.68;2.30;;;23.30;99.90;;;;;;5048164;28;20067;-81
2023/01/10 11:31:56;;;;;;;8.02;2.20;;;22.10;99.90;;;;;;5040500;28;20044;-81
2023/01/10 11:34:41;;;;;;;8.15;2.15;;;22.60;99.90;;;;;;5050877;28;20104;-81
2023/01/10 11:37:20;;;;;;;7.53;2.10;;;25.80;99.90;;;;;;5050680;28;20036;-81
2023/01/10 11:39:46;;;;;;;4.53;1.77;;;27.20;99.90;;;;;;5036949;28;20044;-82
2023/01/10 11:42:28;;;;;;;5.25;1.67;;;27.10;99.90;;;;;;5051252;28;20385;-80
2023/01/10 11:44:54;;;;;;;9.15;2.20;;;25.40;99.90;;;;;;5051026;28;20049;-81
2023/01/10 11:47:21;;;;;;;4.38;2.35;;;25.30;99.90;;;;;;5050675;28;20053;-83
2023/01/10 11:49:48;;;;;;;5.57;2.08;;;24.40;99.90;;;;;;5051159;28;20044;-81
2023/01/10 11:52:28;;;;;;;6.32;2.42;;;22.80;99.90;;;;;;5054142;28;20025;-80
2023/01/10 11:54:59;;;;;;;7.28;1.90;;;25.50;99.90;;;;;;5054753;28;20029;-80
2023/01/10 11:57:27;;;;;;;4.35;1.85;;;27.10;99.90;;;;;;5054428;28;20428;-80
2023/01/10 11:59:53;;;;;;;6.38;2.10;;;27.40;99.90;;;;;;5054470;28;20055;-81
2023/01/10 12:02:26;;;;;;;4.45;1.92;;;25.70;99.90;;;;;;5054352;28;20041;-90
2023/01/10 12:04:54;;;;;;;8.40;2.35;;;24.80;99.90;;;;;;5053764;28;20432;-82
2023/01/10 12:07:20;;;;;;;7.35;2.03;;;25.70;99.90;;;;;;5044435;28;20559;-81
2023/01/10 12:09:55;;;;;;;5.40;1.77;;;24.20;99.90;;;;;;5054246;28;20021;-81
2023/01/10 12:12:21;;;;;;;3.25;1.35;;;25.80;99.90;;;;;;5054283;28;20036;-81
2023/01/10 12:14:49;;;;;;;4.05;1.52;;;23.60;99.90;;;;;;5054662;28;20020;-82
2023/01/10 12:17:23;;;;;;;3.42;1.35;;;25.60;99.90;;;;;;5053914;28;20481;-83
2023/01/10 12:19:52;;;;;;;4.75;1.55;;;26.40;99.90;;;;;;5053840;28;20021;-82
2023/01/10 12:22:20;;;;;;;3.08;1.45;;;27.10;99.90;;;;;;5054501;28;20495;-81
2023/01/10 12:24:48;;;;;;;4.88;1.60;;;26.80;99.90;;;;;;5054542;28;20055;-83
2023/01/10 12:27:16;;;;;;;4.57;1.77;;;25.30;99.90;;;;;;5053193;28;20064;-81
2023/01/10 12:29:48;;;;;;;4.43;1.60;;;24.70;99.90;;;;;;5054168;28;20052;-81
2023/01/10 12:32:24;;;;;;;7.15;1.80;;;24.40;99.90;;;;;;5055179;28;20034;-81
2023/01/10 12:34:59;;;;;;;4.85;1.60;;;24.40;99.90;;;;;;5054345;28;20017;-81
2023/01/10 12:37:47;;;;;;;2.95;1.60;;;24.40;99.90;;;;;;5054041;28;20049;-81
2023/01/10 12:40:46;;;;;;;6.93;1.80;;;23.00;99.90;;;;;;5054151;28;20032;-81
2023/01/10 12:46:48;;;;;;;5.25;1.80;;;23.40;99.90;;;;;;5053853;28;20121;-81
2023/01/10 12:49:43;;;;;;;5.32;1.50;;;23.80;99.90;;;;;;4972995;28;20042;-80
2023/01/10 12:52:25;;;;;;;4.85;1.85;;;25.00;99.90;;;;;;4972847;28;20070;-80
2023/01/10 12:54:51;;;;;;;4.63;1.70;;;25.40;99.90;;;;;;4972929;28;20525;-80
2023/01/10 12:57:33;;;;;;;4.63;2.08;;;24.20;99.90;;;;;;4972940;28;20031;-81
2023/01/10 13:00:04;;;;;;;6.03;1.90;;;22.30;99.90;;;;;;4972983;28;20046;-81
2023/01/10 13:02:40;;;;;;;6.80;2.20;;;21.40;99.90;;;;;;4972269;28;20081;-80
2023/01/10 13:05:17;;;;;;;4.57;1.80;;;22.10;99.90;;;;;;4973307;28;20058;-81
2023/01/10 13:07:44;;;;;;;5.25;1.98;;;23.20;99.90;;;;;;4972806;28;20022;-81
2023/01/10 13:10:16;;;;;;;4.75;1.70;;;23.00;99.90;;;;;;4972819;28;20039;-81
2023/01/10 13:12:46;;;;;;;6.20;1.50;;;20.70;99.90;;;;;;4973225;28;20061;-81
2023/01/10 13:15:36;;;;;;;3.38;1.63;;;18.50;99.90;;;;;;4977185;28;20542;-80